createdAt,value
2023-04-01T00:01:17.654Z,98898.72
2023-04-01T00:03:45.899Z,98905.72
2023-04-01T00:06:19.538Z,98909.97
2023-04-01T00:08:47.634Z,98903.81
2023-04-01T00:11:20.464Z,98905.84
2023-04-01T00:13:48.850Z,98912.59
2023-04-01T00:18:49.985Z,98910.84
2023-04-01T00:21:19.267Z,98917.81
2023-04-01T00:23:47.233Z,98915.94
2023-04-01T00:26:15.862Z,98918.66
2023-04-01T00:28:43.250Z,98921.84
2023-04-01T00:31:12.350Z,98907.13
2023-04-01T00:33:42.194Z,98916.88
2023-04-01T00:36:30.496Z,98912.47
2023-04-01T00:39:02.340Z,98917.69
2023-04-01T00:41:29.641Z,98913.44
2023-04-01T00:44:27.076Z,98920.41
2023-04-01T00:46:54.971Z,98932.66
2023-04-01T00:49:30.776Z,98916.16
2023-04-01T00:52:03.815Z,98927.31
2023-04-01T00:54:33.410Z,98930.88
2023-04-01T00:57:26.339Z,98941.19
2023-04-01T00:59:56.734Z,98930.63
2023-04-01T01:02:26.053Z,98929.00
2023-04-01T01:04:53.578Z,98935.84
2023-04-01T01:08:23.136Z,98935.84
2023-04-01T01:10:52.911Z,98941.06
2023-04-01T01:13:56.514Z,98943.69
2023-04-01T01:16:45.594Z,98944.41
2023-04-01T01:20:26.348Z,98940.94
2023-04-01T01:23:39.683Z,98950.47
2023-04-01T01:26:59.044Z,98940.84
2023-04-01T01:30:08.860Z,98951.28
2023-04-01T01:33:07.602Z,98948.78
2023-04-01T01:36:00.756Z,98951.28
2023-04-01T01:38:34.904Z,98954.75
2023-04-01T01:41:14.959Z,98965.19
2023-04-01T01:43:49.275Z,98954.97
2023-04-01T01:46:24.306Z,98961.72
2023-04-01T01:48:55.661Z,98962.56
2023-04-01T01:51:23.984Z,98966.13
2023-04-01T01:53:51.839Z,98968.72
2023-04-01T01:56:28.209Z,98963.41
2023-04-01T01:59:10.913Z,98968.63
2023-04-01T02:01:49.692Z,98967.06
2023-04-01T02:04:22.751Z,98969.69
2023-04-01T02:07:03.643Z,98977.50
2023-04-01T02:09:31.941Z,98974.78
2023-04-01T02:12:07.391Z,98979.06
2023-04-01T02:15:10.888Z,98983.69
2023-04-01T02:17:49.541Z,98985.56
2023-04-01T02:20:26.001Z,98989.84
2023-04-01T02:23:00.697Z,98987.59
2023-04-01T02:25:38.596Z,98985.56
2023-04-01T02:28:10.748Z,98988.19
2023-04-01T02:30:43.910Z,98990.91
2023-04-01T02:33:12.901Z,98995.53
2023-04-01T02:35:42.559Z,98997.22
2023-04-01T02:38:10.626Z,98997.22
2023-04-01T02:40:59.292Z,99000.63
2023-04-01T02:43:27.693Z,98992.81
2023-04-01T02:45:55.364Z,98996.59
2023-04-01T02:48:22.899Z,99003.47
2023-04-01T02:50:50.482Z,99004.53
2023-04-01T02:53:20.963Z,99003.00
2023-04-01T02:55:51.343Z,99004.75
2023-04-01T02:58:19.491Z,99009.28
2023-04-01T03:00:46.928Z,99002.47
2023-04-01T03:03:14.915Z,99013.97
2023-04-01T03:05:42.548Z,99006.16
2023-04-01T03:08:11.396Z,99013.13
2023-04-01T03:10:38.698Z,99017.75
2023-04-01T03:13:07.230Z,99022.75
2023-04-01T03:15:36.984Z,99029.75
2023-04-01T03:18:04.651Z,99022.25
2023-04-01T03:20:32.175Z,99018.56
2023-04-01T03:22:59.621Z,99022.97
2023-04-01T03:25:29.633Z,99026.50
2023-04-01T03:28:00.554Z,99030.91
2023-04-01T03:30:32.161Z,99025.69
2023-04-01T03:33:01.164Z,99024.75
2023-04-01T03:35:29.114Z,99029.00
2023-04-01T03:37:57.839Z,99033.41
2023-04-01T03:40:27.439Z,99029.00
2023-04-01T03:42:57.389Z,99036.72
2023-04-01T03:45:24.895Z,99032.38
2023-04-01T03:47:53.519Z,99025.59
2023-04-01T03:50:21.664Z,99034.22
2023-04-01T03:52:48.993Z,99038.63
2023-04-01T03:55:17.642Z,99036.84
2023-04-01T03:57:45.392Z,99032.69
2023-04-01T04:00:20.176Z,99034.47
2023-04-01T04:02:52.432Z,99047.50
2023-04-01T04:05:27.032Z,99042.41
2023-04-01T04:07:58.584Z,99044.41
2023-04-01T04:10:26.972Z,99053.06
2023-04-01T04:12:54.579Z,99054.13
2023-04-01T04:15:24.700Z,99054.47
2023-04-01T04:17:52.481Z,99058.13
2023-04-01T04:20:19.825Z,99054.69
2023-04-01T04:22:48.615Z,99063.56
2023-04-01T04:25:16.549Z,99064.50
2023-04-01T04:27:45.218Z,99060.34
2023-04-01T04:30:14.790Z,99070.69
2023-04-01T04:32:43.187Z,99069.00
2023-04-01T04:35:15.149Z,99080.25
2023-04-01T04:37:42.474Z,99073.41
2023-04-01T04:40:10.157Z,99075.38
2023-04-01T04:42:37.517Z,99078.09
2023-04-01T04:45:16.075Z,99078.94
2023-04-01T04:47:52.535Z,99077.38
2023-04-01T04:50:20.380Z,99073.94
2023-04-01T04:52:49.066Z,99081.13
2023-04-01T04:55:16.643Z,99076.88
2023-04-01T04:57:47.409Z,99082.94
2023-04-01T05:00:16.250Z,99097.66
2023-04-01T05:02:50.297Z,99092.53
2023-04-01T05:05:18.899Z,99101.06
2023-04-01T05:07:47.448Z,99097.53
2023-04-01T05:10:14.909Z,99102.75
2023-04-01T05:12:42.299Z,99103.78
2023-04-01T05:15:11.971Z,99111.50
2023-04-01T05:17:41.001Z,99118.50
2023-04-01T05:20:18.966Z,99120.25
2023-04-01T05:22:46.323Z,99127.97
2023-04-01T05:25:15.349Z,99120.16
2023-04-01T05:27:42.627Z,99128.84
2023-04-01T05:30:12.236Z,99136.66
2023-04-01T05:32:47.484Z,99134.06
2023-04-01T05:35:14.955Z,99132.38
2023-04-01T05:37:42.227Z,99141.03
2023-04-01T05:40:14.280Z,99144.28
2023-04-01T05:42:48.132Z,99139.66
2023-04-01T05:45:17.431Z,99155.31
2023-04-01T05:47:50.850Z,99154.38
2023-04-01T05:50:19.443Z,99158.63
2023-04-01T05:52:49.604Z,99160.31
2023-04-01T05:55:17.637Z,99169.72
2023-04-01T05:57:49.260Z,99166.13
2023-04-01T06:00:18.783Z,99171.34
2023-04-01T06:02:47.438Z,99178.97
2023-04-01T06:05:28.589Z,99170.31
2023-04-01T06:08:06.151Z,99179.81
2023-04-01T06:11:27.371Z,99195.25
2023-04-01T06:14:39.879Z,99194.41
2023-04-01T06:17:33.940Z,99208.09
2023-04-01T06:21:03.070Z,99204.31
2023-04-01T06:23:55.749Z,99218.94
2023-04-01T06:27:29.452Z,99210.06
2023-04-01T06:30:38.499Z,99226.44
2023-04-01T06:34:11.120Z,99228.94
2023-04-01T06:37:33.655Z,99228.13
2023-04-01T06:41:02.495Z,99239.91
2023-04-01T06:44:11.802Z,99237.72
2023-04-01T06:47:26.561Z,99232.38
2023-04-01T06:50:55.503Z,99242.50
2023-04-01T06:54:21.528Z,99246.66
2023-04-01T06:57:44.906Z,99256.06
2023-04-01T07:00:28.712Z,99256.88
2023-04-01T07:03:24.657Z,99263.66
2023-04-01T07:05:57.472Z,99263.78
2023-04-01T07:08:30.821Z,99267.09
2023-04-01T07:11:05.325Z,99258.44
2023-04-01T07:14:02.291Z,99273.41
2023-04-01T07:16:53.543Z,99278.50
2023-04-01T07:19:47.920Z,99284.56
2023-04-01T07:22:42.645Z,99281.13
2023-04-01T07:25:30.865Z,99295.72
2023-04-01T07:28:18.613Z,99300.22
2023-04-01T07:31:44.363Z,99299.28
2023-04-01T07:35:08.032Z,99302.84
2023-04-01T07:38:11.337Z,99308.06
2023-04-01T07:41:16.762Z,99317.34
2023-04-01T07:44:25.342Z,99311.91
2023-04-01T07:47:25.236Z,99328.41
2023-04-01T07:50:50.053Z,99325.59
2023-04-01T07:53:46.955Z,99333.91
2023-04-01T07:56:55.752Z,99330.47
2023-04-01T08:00:29.002Z,99333.00
2023-04-01T08:04:05.822Z,99341.53
2023-04-01T08:07:27.685Z,99345.94
2023-04-01T08:11:29.071Z,99357.44
2023-04-01T08:14:32.737Z,99363.63
2023-04-01T08:18:00.137Z,99361.22
2023-04-01T08:21:08.134Z,99366.53
2023-04-01T08:23:48.523Z,99377.09
2023-04-01T08:26:46.377Z,99376.25
2023-04-01T08:29:41.911Z,99377.22
2023-04-01T08:32:38.461Z,99385.56
2023-04-01T08:35:40.518Z,99382.81
2023-04-01T08:38:33.043Z,99394.97
2023-04-01T08:41:53.411Z,99397.56
2023-04-01T08:45:25.537Z,99398.41
2023-04-01T08:48:42.836Z,99401.72
2023-04-01T08:52:20.276Z,99411.03
2023-04-01T08:55:34.699Z,99419.38
2023-04-01T08:59:25.224Z,99421.78
2023-04-01T09:02:26.405Z,99425.84
2023-04-01T09:06:05.570Z,99437.22
2023-04-01T09:09:12.734Z,99440.81
2023-04-01T09:12:09.570Z,99445.06
2023-04-01T09:15:23.770Z,99454.69
2023-04-01T09:18:31.314Z,99462.84
2023-04-01T09:21:51.831Z,99463.66
2023-04-01T09:24:33.299Z,99467.03
2023-04-01T09:28:19.697Z,99462.53
2023-04-01T09:31:52.447Z,99487.94
2023-04-01T09:35:24.464Z,99486.25
2023-04-01T09:38:24.385Z,99481.97
2023-04-01T09:41:48.464Z,99489.59
2023-04-01T09:44:43.340Z,99489.59
2023-04-01T09:48:26.162Z,99492.94
2023-04-01T09:51:41.290Z,99490.13
2023-04-01T09:54:52.231Z,99492.63
2023-04-01T09:58:09.458Z,99499.19
2023-04-01T10:02:33.073Z,99494.19
2023-04-01T10:05:39.326Z,99503.78
2023-04-01T10:09:02.603Z,99508.78
2023-04-01T10:12:17.758Z,99515.00
2023-04-01T10:16:01.365Z,99518.81
2023-04-01T10:18:49.708Z,99522.47
2023-04-01T10:22:05.887Z,99525.84
2023-04-01T10:25:04.132Z,99518.41
2023-04-01T10:28:13.558Z,99533.75
2023-04-01T10:31:38.673Z,99521.63
2023-04-01T10:34:40.976Z,99537.09
2023-04-01T10:37:40.863Z,99534.28
2023-04-01T10:40:52.078Z,99540.13
2023-04-01T10:44:41.064Z,99542.88
2023-04-01T10:47:54.869Z,99550.50
2023-04-01T10:50:47.371Z,99544.41
2023-04-01T10:54:02.090Z,99546.91
2023-04-01T10:57:01.020Z,99550.88
2023-04-01T11:00:38.700Z,99554.88
2023-04-01T11:04:07.384Z,99558.59
2023-04-01T11:07:20.196Z,99563.50
2023-04-01T11:10:52.694Z,99561.53
2023-04-01T11:13:33.735Z,99561.31
2023-04-01T11:16:34.086Z,99567.78
2023-04-01T11:19:46.940Z,99565.28
2023-04-01T11:23:07.554Z,99573.97
2023-04-01T11:26:09.980Z,99571.66
2023-04-01T11:29:20.176Z,99583.19
2023-04-01T11:32:47.502Z,99584.25
2023-04-01T11:36:03.417Z,99595.75
2023-04-01T11:39:23.046Z,99590.13
2023-04-01T11:43:32.197Z,99598.56
2023-04-01T11:47:03.665Z,99609.69
2023-04-01T11:50:47.574Z,99608.72
2023-04-01T11:54:09.195Z,99608.94
2023-04-01T11:57:20.630Z,99616.47
2023-04-01T12:00:15.369Z,99620.84
2023-04-01T12:03:56.926Z,99623.47
2023-04-01T12:07:06.904Z,99626.91
2023-04-01T12:10:14.197Z,99638.25
2023-04-01T12:13:29.871Z,99636.56
2023-04-01T12:16:21.206Z,99641.78
2023-04-01T12:19:36.867Z,99648.69
2023-04-01T12:22:22.827Z,99646.19
2023-04-01T12:25:45.503Z,99647.13
2023-04-01T12:29:03.837Z,99664.50
2023-04-01T12:32:14.663Z,99657.91
2023-04-01T12:35:20.261Z,99668.25
2023-04-01T12:38:06.337Z,99670.75
2023-04-01T12:41:45.894Z,99673.88
2023-04-01T12:44:38.711Z,99671.28
2023-04-01T12:47:32.372Z,99667.94
2023-04-01T12:51:05.269Z,99684.47
2023-04-01T12:54:19.716Z,99677.47
2023-04-01T12:57:53.094Z,99687.06
2023-04-01T13:01:26.310Z,99686.47
2023-04-01T13:05:16.044Z,99691.69
2023-04-01T13:08:17.753Z,99695.78
2023-04-01T13:11:11.086Z,99700.03
2023-04-01T13:15:12.796Z,99705.28
2023-04-01T13:18:15.684Z,99706.53
2023-04-01T13:22:09.783Z,99723.41
2023-04-01T13:26:10.888Z,99719.19
2023-04-01T13:29:18.217Z,99722.88
2023-04-01T13:36:28.297Z,99730.41
2023-04-01T13:39:33.322Z,99733.13
2023-04-01T13:42:38.890Z,99743.69
2023-04-01T13:45:39.131Z,99738.66
2023-04-01T13:48:45.015Z,99738.88
2023-04-01T13:51:29.229Z,99740.66
2023-04-01T13:54:39.987Z,99748.50
2023-04-01T13:57:26.945Z,99746.91
2023-04-01T14:01:01.491Z,99746.50
2023-04-01T14:04:43.347Z,99758.75
2023-04-01T14:07:35.187Z,99755.50
2023-04-01T14:10:36.822Z,99758.22
2023-04-01T14:13:30.381Z,99765.53
2023-04-01T14:16:46.714Z,99761.13
2023-04-01T14:19:54.788Z,99762.09
2023-04-01T14:23:04.886Z,99776.94
2023-04-01T14:26:19.759Z,99778.50
2023-04-01T14:29:34.649Z,99777.47
2023-04-01T14:32:54.658Z,99782.72
2023-04-01T14:36:33.626Z,99776.53
2023-04-01T14:39:39.392Z,99781.66
2023-04-01T14:42:29.097Z,99787.84
2023-04-01T14:45:53.538Z,99790.56
2023-04-01T14:48:44.250Z,99800.25
2023-04-01T14:51:41.457Z,99793.69
2023-04-01T14:54:31.722Z,99803.94
2023-04-01T14:57:28.043Z,99803.06
2023-04-01T15:00:18.327Z,99807.59
2023-04-01T15:03:03.275Z,99811.78
2023-04-01T15:06:34.495Z,99809.88
2023-04-01T15:10:20.961Z,99807.38
2023-04-01T15:13:33.591Z,99822.25
2023-04-01T15:16:46.068Z,99829.22
2023-04-01T15:20:02.769Z,99829.03
2023-04-01T15:23:02.307Z,99834.25
2023-04-01T15:26:32.675Z,99840.34
2023-04-01T15:29:46.704Z,99840.53
2023-04-01T15:33:40.036Z,99845.88
2023-04-01T15:36:46.084Z,99841.88
2023-04-01T15:40:39.665Z,99853.06
2023-04-01T15:43:31.591Z,99861.00
2023-04-01T15:46:42.926Z,99855.88
2023-04-01T15:49:48.282Z,99865.50
2023-04-01T15:52:58.952Z,99864.78
2023-04-01T15:56:12.590Z,99858.50
2023-04-01T15:59:25.696Z,99871.47
2023-04-01T16:02:43.626Z,99867.28
2023-04-01T16:06:15.321Z,99874.28
2023-04-01T16:08:58.789Z,99884.63
2023-04-01T16:11:52.731Z,99879.31
2023-04-01T16:14:51.944Z,99891.34
2023-04-01T16:17:48.254Z,99890.44
2023-04-01T16:21:03.477Z,99893.06
2023-04-01T16:24:11.356Z,99895.75
2023-04-01T16:27:04.582Z,99904.34
2023-04-01T16:30:22.311Z,99905.06
2023-04-01T16:33:01.159Z,99914.69
2023-04-01T16:36:15.160Z,99917.31
2023-04-01T16:39:18.660Z,99916.09
2023-04-01T16:42:44.364Z,99934.75
2023-04-01T16:45:45.363Z,99931.63
2023-04-01T16:49:09.067Z,99946.94
2023-04-01T16:52:30.606Z,99947.56
2023-04-01T16:56:11.508Z,99962.31
2023-04-01T16:59:08.578Z,99972.59
2023-04-01T17:01:46.375Z,99977.00
2023-04-01T17:04:46.174Z,99974.69
2023-04-01T17:08:17.681Z,99984.66
2023-04-01T17:10:59.119Z,99999.69
2023-04-01T17:13:58.379Z,100014.25
2023-04-01T17:17:02.431Z,100002.31
2023-04-01T17:20:03.373Z,100013.63
2023-04-01T17:22:57.710Z,100015.38
2023-04-01T17:25:49.835Z,100027.53
2023-04-01T17:29:17.998Z,100033.91
2023-04-01T17:33:05.812Z,100039.53
2023-04-01T17:36:03.847Z,100046.63
2023-04-01T17:39:15.357Z,100044.94
2023-04-01T17:42:17.654Z,100067.56
2023-04-01T17:45:05.475Z,100074.00
2023-04-01T17:48:16.774Z,100076.91
2023-04-01T17:51:36.574Z,100078.88
2023-04-01T17:54:49.666Z,100086.84
2023-04-01T17:58:07.263Z,100092.16
2023-04-01T18:01:22.678Z,100097.66
2023-04-01T18:04:32.200Z,100110.75
2023-04-01T18:07:51.512Z,100114.56
2023-04-01T18:10:23.046Z,100114.94
2023-04-01T18:13:40.651Z,100134.75
2023-04-01T18:16:23.288Z,100136.63
2023-04-01T18:19:35.467Z,100140.53
2023-04-01T18:22:27.143Z,100154.06
2023-04-01T18:25:17.981Z,100171.81
2023-04-01T18:28:14.793Z,100169.28
2023-04-01T18:31:10.882Z,100179.25
2023-04-01T18:34:02.906Z,100187.09
2023-04-01T18:37:16.127Z,100200.63
2023-04-01T18:39:58.643Z,100205.16
2023-04-01T18:43:04.410Z,100215.59
2023-04-01T18:45:41.046Z,100216.56
2023-04-01T18:48:57.701Z,100228.19
2023-04-01T18:52:23.046Z,100233.03
2023-04-01T18:55:02.124Z,100252.41
2023-04-01T18:57:55.700Z,100253.56
2023-04-01T19:01:05.008Z,100253.09
2023-04-01T19:04:08.752Z,100262.94
2023-04-01T19:06:59.278Z,100263.88
2023-04-01T19:09:51.412Z,100283.69
2023-04-01T19:12:45.968Z,100278.63
2023-04-01T19:15:44.822Z,100298.06
2023-04-01T19:18:41.311Z,100290.72
2023-04-01T19:22:00.467Z,100303.97
2023-04-01T19:25:13.594Z,100313.72
2023-04-01T19:27:56.883Z,100315.69
2023-04-01T19:30:54.517Z,100329.00
2023-04-01T19:33:51.646Z,100319.72
2023-04-01T19:37:00.135Z,100329.31
2023-04-01T19:39:53.011Z,100337.94
2023-04-01T19:42:57.727Z,100344.13
2023-04-01T19:45:54.932Z,100347.41
2023-04-01T19:49:20.208Z,100347.66
2023-04-01T19:52:18.185Z,100346.91
2023-04-01T19:55:07.360Z,100364.50
2023-04-01T19:58:29.853Z,100380.25
2023-04-01T20:01:01.869Z,100379.53
2023-04-01T20:03:57.254Z,100391.91
2023-04-01T20:06:41.104Z,100394.81
2023-04-01T20:09:36.239Z,100407.13
2023-04-01T20:12:18.215Z,100408.94
2023-04-01T20:14:58.572Z,100421.22
2023-04-01T20:17:47.171Z,100421.97
2023-04-01T20:20:14.472Z,100426.38
2023-04-01T20:22:47.930Z,100434.28
2023-04-01T20:25:27.921Z,100441.28
2023-04-01T20:28:20.919Z,100435.25
2023-04-01T20:31:09.292Z,100448.53
2023-04-01T20:34:10.941Z,100462.38
2023-04-01T20:37:05.599Z,100452.91
2023-04-01T20:39:54.144Z,100470.41
2023-04-01T20:43:26.105Z,100479.22
2023-04-01T20:46:24.008Z,100482.06
2023-04-01T20:49:38.331Z,100483.97
2023-04-01T20:52:15.116Z,100490.31
2023-04-01T20:55:53.375Z,100506.63
2023-04-01T20:59:09.824Z,100494.84
2023-04-01T21:02:09.096Z,100514.94
2023-04-01T21:06:00.789Z,100522.13
2023-04-01T21:09:54.105Z,100528.19
2023-04-01T21:12:58.928Z,100535.59
2023-04-01T21:16:39.441Z,100547.09
2023-04-01T21:19:26.673Z,100543.00
2023-04-01T21:22:16.755Z,100551.03
2023-04-01T21:25:49.552Z,100564.19
2023-04-01T21:29:07.062Z,100564.34
2023-04-01T21:32:12.990Z,100579.97
2023-04-01T21:35:11.841Z,100586.16
2023-04-01T21:38:33.475Z,100586.22
2023-04-01T21:41:22.738Z,100592.56
2023-04-01T21:44:07.939Z,100595.38
2023-04-01T21:47:58.589Z,100603.19
2023-04-01T21:50:48.426Z,100623.97
2023-04-01T21:54:21.936Z,100619.59
2023-04-01T21:57:37.270Z,100624.09
2023-04-01T22:00:17.192Z,100633.72
2023-04-01T22:03:29.440Z,100639.13
2023-04-01T22:06:30.005Z,100644.53
2023-04-01T22:09:29.053Z,100645.81
2023-04-01T22:12:24.058Z,100647.72
2023-04-01T22:15:26.392Z,100675.34
2023-04-01T22:21:06.037Z,100675.53
2023-04-01T22:24:13.277Z,100679.97
2023-04-01T22:27:32.007Z,100675.81
2023-04-01T22:30:25.334Z,100684.38
2023-04-01T22:33:03.657Z,100694.16
2023-04-01T22:35:52.908Z,100699.53
2023-04-01T22:39:14.575Z,100707.47
2023-04-01T22:42:45.783Z,100717.31
2023-04-01T22:46:20.094Z,100712.28
2023-04-01T22:49:06.596Z,100732.25
2023-04-01T22:52:45.246Z,100757.72
2023-04-01T22:55:26.736Z,100742.41
2023-04-01T22:58:05.676Z,100739.19
2023-04-01T23:00:49.383Z,100746.28
2023-04-01T23:03:37.233Z,100746.34
2023-04-01T23:06:06.541Z,100751.63
2023-04-01T23:09:11.727Z,100749.19
2023-04-01T23:12:08.396Z,100758.72
2023-04-01T23:15:02.714Z,100768.41
2023-04-01T23:18:03.995Z,100771.84
2023-04-01T23:21:04.889Z,100773.72
2023-04-01T23:23:56.949Z,100778.88
2023-04-01T23:26:47.826Z,100792.84
2023-04-01T23:29:20.318Z,100790.34
2023-04-01T23:32:18.177Z,100795.66
2023-04-01T23:34:59.470Z,100795.72
2023-04-01T23:37:28.207Z,100801.84
2023-04-01T23:40:01.990Z,100806.16
2023-04-01T23:42:41.498Z,100808.66
2023-04-01T23:45:21.790Z,100817.44
2023-04-01T23:47:51.669Z,100823.53
2023-04-01T23:50:28.280Z,100826.88
2023-04-01T23:53:17.773Z,100833.13
2023-04-01T23:55:45.126Z,100843.53
2023-04-01T23:58:29.436Z,100840.09
